createdAt,value
2016-08-25T00:00:51.346Z,0
2016-08-25T00:01:51.339Z,0
2016-08-25T00:02:51.325Z,0
2016-08-25T00:03:51.432Z,0
2016-08-25T00:04:51.375Z,0
2016-08-25T00:05:51.891Z,0
2016-08-25T00:06:51.372Z,0
2016-08-25T00:07:51.320Z,0
2016-08-25T00:08:51.419Z,0
2016-08-25T00:09:51.358Z,0
2016-08-25T00:10:51.325Z,0
2016-08-25T00:11:51.329Z,0
2016-08-25T00:12:51.334Z,0
2016-08-25T00:13:51.334Z,0
2016-08-25T00:14:51.343Z,0
2016-08-25T00:15:51.360Z,0
2016-08-25T00:16:51.311Z,0
2016-08-25T00:17:51.412Z,0
2016-08-25T00:18:51.317Z,0
2016-08-25T00:19:51.309Z,0
2016-08-25T00:20:51.324Z,0
2016-08-25T00:21:52.040Z,0
2016-08-25T00:22:51.390Z,0
2016-08-25T00:23:51.318Z,0
2016-08-25T00:24:51.292Z,0
2016-08-25T00:25:51.300Z,0
2016-08-25T00:26:51.279Z,0
2016-08-25T00:27:51.260Z,0
2016-08-25T00:28:51.794Z,0
2016-08-25T00:29:51.343Z,0
2016-08-25T00:30:51.321Z,0
2016-08-25T00:31:51.273Z,0
2016-08-25T00:32:51.314Z,0
2016-08-25T00:33:51.291Z,0
2016-08-25T00:34:51.317Z,0
2016-08-25T00:35:51.264Z,0
2016-08-25T00:36:51.256Z,0
2016-08-25T00:37:51.252Z,0
2016-08-25T00:38:51.251Z,0
2016-08-25T00:39:51.238Z,0
2016-08-25T00:40:51.258Z,0
2016-08-25T00:41:51.337Z,0
2016-08-25T00:42:51.757Z,0
2016-08-25T00:43:51.301Z,0
2016-08-25T00:44:51.235Z,0
2016-08-25T00:45:51.287Z,0
2016-08-25T00:46:51.282Z,0
2016-08-25T00:47:51.414Z,0
2016-08-25T00:48:51.286Z,0
2016-08-25T00:49:51.219Z,0
2016-08-25T00:50:52.403Z,0
2016-08-25T00:51:51.299Z,0
2016-08-25T00:52:51.316Z,0
2016-08-25T00:53:51.265Z,0
2016-08-25T00:54:51.275Z,0
2016-08-25T00:55:51.283Z,0
2016-08-25T00:56:51.325Z,0
2016-08-25T00:57:51.319Z,0
2016-08-25T00:58:51.312Z,0
2016-08-25T00:59:51.300Z,0
2016-08-25T01:00:51.259Z,0
2016-08-25T01:01:51.297Z,0
2016-08-25T01:02:51.231Z,0
2016-08-25T01:03:51.260Z,0
2016-08-25T01:04:51.251Z,0
2016-08-25T01:05:51.280Z,0
2016-08-25T01:06:51.251Z,0
2016-08-25T01:07:51.732Z,0
2016-08-25T01:08:51.334Z,0
2016-08-25T01:09:51.213Z,0
2016-08-25T01:10:51.240Z,0
2016-08-25T01:11:51.292Z,0
2016-08-25T01:12:51.138Z,0
2016-08-25T01:13:51.237Z,0
2016-08-25T01:14:51.674Z,0
2016-08-25T01:15:51.202Z,0
2016-08-25T01:16:51.240Z,0
2016-08-25T01:17:51.252Z,0
2016-08-25T01:18:51.279Z,0
2016-08-25T01:19:51.252Z,0
2016-08-25T01:20:51.209Z,0
2016-08-25T01:21:51.208Z,0
2016-08-25T01:22:51.070Z,0
2016-08-25T01:23:51.067Z,0
2016-08-25T01:24:51.809Z,0
2016-08-25T01:25:51.157Z,0
2016-08-25T01:26:51.185Z,0
2016-08-25T01:27:51.206Z,0
2016-08-25T01:28:51.182Z,0
2016-08-25T01:29:51.193Z,0
2016-08-25T01:30:51.202Z,0
2016-08-25T01:31:51.275Z,0
2016-08-25T01:32:51.053Z,0
2016-08-25T01:33:51.249Z,0
2016-08-25T01:34:51.033Z,0
2016-08-25T01:35:51.035Z,0
2016-08-25T01:36:51.778Z,0
2016-08-25T01:37:51.201Z,0
2016-08-25T01:38:51.008Z,0
2016-08-25T01:39:51.559Z,0
2016-08-25T01:40:51.167Z,0
2016-08-25T01:41:51.748Z,0
2016-08-25T01:42:51.039Z,0
2016-08-25T01:43:51.168Z,0
2016-08-25T01:44:51.039Z,0
2016-08-25T01:45:51.050Z,0
2016-08-25T01:46:51.027Z,0
2016-08-25T01:47:51.026Z,0
2016-08-25T01:48:51.019Z,0
2016-08-25T01:49:51.042Z,0
2016-08-25T01:50:50.996Z,0
2016-08-25T01:51:51.024Z,0
2016-08-25T01:52:51.023Z,0
2016-08-25T01:53:51.776Z,0
2016-08-25T01:54:50.995Z,0
2016-08-25T01:55:51.476Z,0
2016-08-25T01:56:50.991Z,0
2016-08-25T01:57:51.024Z,0
2016-08-25T01:58:50.984Z,0
2016-08-25T01:59:50.989Z,0
2016-08-25T02:00:51.557Z,0
2016-08-25T02:01:50.850Z,0
2016-08-25T02:02:50.983Z,0
2016-08-25T02:03:50.996Z,0
2016-08-25T02:04:50.975Z,0
2016-08-25T02:05:50.837Z,0
2016-08-25T02:06:50.847Z,0
2016-08-25T02:07:50.844Z,0
2016-08-25T02:08:50.833Z,0
2016-08-25T02:09:50.833Z,0
2016-08-25T02:10:50.825Z,0
2016-08-25T02:11:50.827Z,0
2016-08-25T02:12:50.833Z,0
2016-08-25T02:13:50.915Z,0
2016-08-25T02:14:50.838Z,0
2016-08-25T02:15:50.821Z,0
2016-08-25T02:16:51.527Z,0
2016-08-25T02:17:50.821Z,0
2016-08-25T02:18:50.812Z,0
2016-08-25T02:19:51.408Z,0
2016-08-25T02:20:50.806Z,0
2016-08-25T02:21:50.810Z,0
2016-08-25T02:22:50.799Z,0
2016-08-25T02:23:50.837Z,0
2016-08-25T02:24:50.668Z,0
2016-08-25T02:25:50.801Z,0
2016-08-25T02:26:51.387Z,0
2016-08-25T02:27:50.803Z,0
2016-08-25T02:28:50.790Z,0
2016-08-25T02:29:50.830Z,0
2016-08-25T02:30:50.683Z,0
2016-08-25T02:31:50.651Z,0
2016-08-25T02:32:50.677Z,0
2016-08-25T02:33:50.640Z,0
2016-08-25T02:34:50.639Z,0
2016-08-25T02:35:50.676Z,0
2016-08-25T02:36:50.643Z,0
2016-08-25T02:37:50.638Z,0
2016-08-25T02:38:50.624Z,0
2016-08-25T02:39:50.635Z,0
2016-08-25T02:40:50.640Z,0
2016-08-25T02:41:50.616Z,0
2016-08-25T02:42:50.594Z,0
2016-08-25T02:43:51.350Z,0
2016-08-25T02:44:50.592Z,0
2016-08-25T02:45:51.333Z,0
2016-08-25T02:46:50.602Z,0
2016-08-25T02:47:51.300Z,0
2016-08-25T02:48:50.582Z,0
2016-08-25T02:49:50.574Z,0
2016-08-25T02:50:50.623Z,0
2016-08-25T02:51:51.300Z,0
2016-08-25T02:52:50.580Z,0
2016-08-25T02:53:50.598Z,0
2016-08-25T02:54:50.563Z,0
2016-08-25T02:55:51.331Z,0
2016-08-25T02:56:50.566Z,0
2016-08-25T02:57:50.585Z,0
2016-08-25T02:58:50.556Z,0
2016-08-25T02:59:50.554Z,0
2016-08-25T03:00:50.529Z,0
2016-08-25T03:01:51.289Z,0
2016-08-25T03:02:50.568Z,0
2016-08-25T03:03:50.575Z,0
2016-08-25T03:04:50.527Z,0
2016-08-25T03:05:50.531Z,0
2016-08-25T03:06:50.522Z,0
2016-08-25T03:07:50.515Z,0
2016-08-25T03:08:50.514Z,0
2016-08-25T03:09:50.570Z,0
2016-08-25T03:10:50.506Z,0
2016-08-25T03:11:51.264Z,0
2016-08-25T03:12:50.490Z,0
2016-08-25T03:13:50.509Z,0
2016-08-25T03:14:50.541Z,0
2016-08-25T03:15:51.283Z,0
2016-08-25T03:16:50.513Z,0
2016-08-25T03:17:50.475Z,0
2016-08-25T03:18:50.489Z,0
2016-08-25T03:19:50.504Z,0
2016-08-25T03:20:51.208Z,0
2016-08-25T03:21:50.566Z,0
2016-08-25T03:22:50.480Z,0
2016-08-25T03:23:50.528Z,0
2016-08-25T03:24:51.257Z,0
2016-08-25T03:25:50.491Z,0
2016-08-25T03:26:50.449Z,0
2016-08-25T03:27:50.443Z,0
2016-08-25T03:28:50.458Z,0
2016-08-25T03:29:50.451Z,0
2016-08-25T03:30:51.192Z,0
2016-08-25T03:31:50.409Z,0
2016-08-25T03:32:50.410Z,0
2016-08-25T03:33:50.432Z,0
2016-08-25T03:34:50.434Z,0
2016-08-25T03:35:50.403Z,0
2016-08-25T03:36:50.435Z,0
2016-08-25T03:37:50.414Z,0
2016-08-25T03:38:50.392Z,0
2016-08-25T03:39:50.373Z,0
2016-08-25T03:40:50.416Z,0
2016-08-25T03:41:50.389Z,0
2016-08-25T03:42:50.364Z,0
2016-08-25T03:43:50.355Z,0
2016-08-25T03:44:50.363Z,0
2016-08-25T03:45:51.183Z,0
2016-08-25T03:46:50.357Z,0
2016-08-25T03:47:50.350Z,0
2016-08-25T03:48:51.108Z,0
2016-08-25T03:49:50.325Z,0
2016-08-25T03:50:50.498Z,0
2016-08-25T03:51:50.338Z,0
2016-08-25T03:52:51.035Z,0
2016-08-25T03:53:50.354Z,0
2016-08-25T03:54:50.334Z,0
2016-08-25T03:55:50.449Z,0
2016-08-25T03:56:51.094Z,0
2016-08-25T03:57:50.303Z,0
2016-08-25T03:58:50.291Z,0
2016-08-25T03:59:50.425Z,0
2016-08-25T04:00:50.302Z,0
2016-08-25T04:01:50.285Z,0
2016-08-25T04:02:50.289Z,0
2016-08-25T04:03:50.326Z,0
2016-08-25T04:04:50.279Z,0
2016-08-25T04:05:50.285Z,0
2016-08-25T04:06:50.287Z,0
2016-08-25T04:07:50.265Z,0
2016-08-25T04:08:50.303Z,0
2016-08-25T04:09:50.284Z,0
2016-08-25T04:10:50.286Z,0
2016-08-25T04:11:50.264Z,0
2016-08-25T04:12:50.289Z,0
2016-08-25T04:13:50.277Z,5
2016-08-25T04:14:50.243Z,5
2016-08-25T04:15:51.159Z,5
2016-08-25T04:16:50.247Z,5
2016-08-25T04:17:50.242Z,5
2016-08-25T04:18:50.202Z,5
2016-08-25T04:19:50.211Z,5
2016-08-25T04:20:50.218Z,5
2016-08-25T04:21:50.194Z,5
2016-08-25T04:22:50.230Z,10
2016-08-25T04:23:51.095Z,10
2016-08-25T04:24:50.191Z,10
2016-08-25T04:25:50.208Z,10
2016-08-25T04:26:50.923Z,10
2016-08-25T04:27:50.165Z,10
2016-08-25T04:28:50.237Z,10
2016-08-25T04:29:50.210Z,10
2016-08-25T04:30:50.229Z,15
2016-08-25T04:31:50.356Z,15
2016-08-25T04:32:50.167Z,15
2016-08-25T04:33:50.136Z,15
2016-08-25T04:34:50.143Z,15
2016-08-25T04:35:50.156Z,15
2016-08-25T04:36:50.146Z,15
2016-08-25T04:37:50.139Z,20
2016-08-25T04:38:50.151Z,20
2016-08-25T04:39:50.142Z,20
2016-08-25T04:40:50.132Z,20
2016-08-25T04:41:50.124Z,20
2016-08-25T04:42:50.143Z,20
2016-08-25T04:43:50.140Z,20
2016-08-25T04:44:50.124Z,20
2016-08-25T04:45:50.098Z,25
2016-08-25T04:46:50.079Z,25
2016-08-25T04:47:50.117Z,25
2016-08-25T04:48:50.100Z,25
2016-08-25T04:49:50.107Z,25
2016-08-25T04:50:50.078Z,25
2016-08-25T04:51:50.057Z,25
2016-08-25T04:52:50.066Z,25
2016-08-25T04:53:50.078Z,30
2016-08-25T04:54:50.090Z,30
2016-08-25T04:55:50.130Z,30
2016-08-25T04:56:50.069Z,30
2016-08-25T04:57:50.036Z,30
2016-08-25T04:58:50.032Z,30
2016-08-25T04:59:50.057Z,30
2016-08-25T05:00:50.061Z,30
2016-08-25T05:01:50.025Z,30
2016-08-25T05:02:50.023Z,35
2016-08-25T05:03:50.028Z,35
2016-08-25T05:04:50.034Z,35
2016-08-25T05:05:50.018Z,35
2016-08-25T05:06:49.995Z,35
2016-08-25T05:07:50.007Z,35
2016-08-25T05:08:50.027Z,35
2016-08-25T05:09:50.008Z,35
2016-08-25T05:10:49.971Z,35
2016-08-25T05:11:49.977Z,35
2016-08-25T05:12:49.982Z,40
2016-08-25T05:13:49.974Z,40
2016-08-25T05:14:50.714Z,40
2016-08-25T05:15:49.969Z,40
2016-08-25T05:16:49.973Z,40
2016-08-25T05:17:49.963Z,40
2016-08-25T05:18:49.976Z,40
2016-08-25T05:19:50.182Z,40
2016-08-25T05:20:49.937Z,40
2016-08-25T05:21:49.942Z,40
2016-08-25T05:22:49.921Z,40
2016-08-25T05:23:49.968Z,40
2016-08-25T05:24:49.944Z,45
2016-08-25T05:25:49.910Z,45
2016-08-25T05:26:49.908Z,45
2016-08-25T05:27:49.944Z,45
2016-08-25T05:28:50.133Z,45
2016-08-25T05:29:49.917Z,45
2016-08-25T05:30:49.917Z,45
2016-08-25T05:31:49.919Z,45
2016-08-25T05:32:49.905Z,45
2016-08-25T05:33:49.894Z,45
2016-08-25T05:34:49.895Z,45
2016-08-25T05:35:49.886Z,45
2016-08-25T05:36:49.882Z,45
2016-08-25T05:37:49.873Z,50
2016-08-25T05:38:50.591Z,50
2016-08-25T05:39:50.806Z,50
2016-08-25T05:40:49.892Z,50
2016-08-25T05:41:49.849Z,50
2016-08-25T05:42:49.847Z,50
2016-08-25T05:43:49.855Z,50
2016-08-25T05:44:49.903Z,50
2016-08-25T05:45:49.846Z,50
2016-08-25T05:46:49.862Z,50
2016-08-25T05:47:49.859Z,50
2016-08-25T05:48:49.850Z,50
2016-08-25T05:49:49.845Z,50
2016-08-25T05:50:49.864Z,50
2016-08-25T05:51:49.838Z,50
2016-08-25T05:52:50.641Z,50
2016-08-25T05:53:49.833Z,50
2016-08-25T05:54:49.806Z,55
2016-08-25T05:55:49.800Z,55
2016-08-25T05:56:49.825Z,55
2016-08-25T05:57:49.810Z,55
2016-08-25T05:58:49.808Z,55
2016-08-25T05:59:50.019Z,55
2016-08-25T06:00:49.777Z,55
2016-08-25T06:01:49.791Z,55
2016-08-25T06:02:49.792Z,55
2016-08-25T06:03:49.778Z,55
2016-08-25T06:04:49.807Z,55
2016-08-25T06:05:49.813Z,55
2016-08-25T06:06:49.780Z,55
2016-08-25T06:07:49.769Z,55
2016-08-25T06:08:49.750Z,55
2016-08-25T06:09:49.779Z,55
2016-08-25T06:10:49.793Z,55
2016-08-25T06:11:49.774Z,55
2016-08-25T06:12:49.972Z,55
2016-08-25T06:13:49.745Z,55
2016-08-25T06:14:49.773Z,55
2016-08-25T06:15:49.755Z,55
2016-08-25T06:16:49.735Z,55
2016-08-25T06:17:49.773Z,60
2016-08-25T06:18:49.778Z,60
2016-08-25T06:19:49.757Z,60
2016-08-25T06:20:49.732Z,60
2016-08-25T06:21:49.932Z,60
2016-08-25T06:22:49.886Z,60
2016-08-25T06:23:49.719Z,60
2016-08-25T06:24:49.759Z,60
2016-08-25T06:25:51.130Z,60
2016-08-25T06:26:49.711Z,60
2016-08-25T06:27:49.750Z,60
2016-08-25T06:28:49.731Z,60
2016-08-25T06:29:50.482Z,60
2016-08-25T06:30:49.753Z,60
2016-08-25T06:31:49.727Z,60
2016-08-25T06:32:49.721Z,60
2016-08-25T06:33:49.726Z,60
2016-08-25T06:34:49.713Z,60
2016-08-25T06:35:49.681Z,60
2016-08-25T06:36:49.716Z,60
2016-08-25T06:37:49.720Z,60
2016-08-25T06:38:49.714Z,60
2016-08-25T06:39:49.672Z,60
2016-08-25T06:40:49.670Z,70
2016-08-25T06:41:50.381Z,80
2016-08-25T06:42:49.651Z,80
2016-08-25T06:43:49.662Z,80
2016-08-25T06:44:50.106Z,90
2016-08-25T06:45:49.695Z,115
2016-08-25T06:46:49.656Z,140
2016-08-25T06:47:49.659Z,105
2016-08-25T06:48:49.696Z,115
2016-08-25T06:49:49.665Z,125
2016-08-25T06:50:49.661Z,120
2016-08-25T06:51:50.389Z,115
2016-08-25T06:52:49.669Z,110
2016-08-25T06:53:49.656Z,100
2016-08-25T06:54:49.641Z,95
2016-08-25T06:55:49.646Z,95
2016-08-25T06:56:49.666Z,90
2016-08-25T06:57:49.661Z,90
2016-08-25T06:58:49.669Z,85
2016-08-25T06:59:49.669Z,90
2016-08-25T07:00:49.633Z,85
2016-08-25T07:01:49.652Z,85
2016-08-25T07:02:49.678Z,80
2016-08-25T07:03:49.709Z,80
2016-08-25T07:04:49.643Z,80
2016-08-25T07:05:50.359Z,80
2016-08-25T07:06:49.644Z,80
2016-08-25T07:07:49.636Z,80
2016-08-25T07:08:49.639Z,80
2016-08-25T07:09:49.654Z,80
2016-08-25T07:10:49.658Z,75
2016-08-25T07:11:49.709Z,75
2016-08-25T07:12:50.363Z,75
2016-08-25T07:13:49.647Z,75
2016-08-25T07:14:50.385Z,75
2016-08-25T07:15:49.628Z,75
2016-08-25T07:16:51.053Z,75
2016-08-25T07:17:49.678Z,75
2016-08-25T07:18:49.662Z,75
2016-08-25T07:19:49.655Z,75
2016-08-25T07:20:49.653Z,75
2016-08-25T07:21:50.386Z,75
2016-08-25T07:22:49.627Z,75
2016-08-25T07:23:49.629Z,75
2016-08-25T07:24:49.689Z,75
2016-08-25T07:25:49.632Z,80
2016-08-25T07:26:49.648Z,80
2016-08-25T07:27:49.652Z,80
2016-08-25T07:28:49.685Z,80
2016-08-25T07:29:49.627Z,80
2016-08-25T07:30:49.631Z,80
2016-08-25T07:31:49.672Z,80
2016-08-25T07:32:49.625Z,80
2016-08-25T07:33:49.645Z,80
2016-08-25T07:34:49.674Z,80
2016-08-25T07:35:49.628Z,80
2016-08-25T07:36:50.630Z,80
2016-08-25T07:37:49.648Z,80
2016-08-25T07:38:49.656Z,80
2016-08-25T07:39:49.664Z,80
2016-08-25T07:40:49.698Z,80
2016-08-25T07:41:49.673Z,80
2016-08-25T07:42:49.651Z,80
2016-08-25T07:43:49.661Z,80
2016-08-25T07:44:49.663Z,80
2016-08-25T07:45:49.669Z,80
2016-08-25T07:46:49.674Z,80
2016-08-25T07:47:49.654Z,80
2016-08-25T07:48:49.651Z,80
2016-08-25T07:49:49.664Z,80
2016-08-25T07:50:50.363Z,80
2016-08-25T07:51:49.653Z,80
2016-08-25T07:52:49.667Z,80
2016-08-25T07:53:49.691Z,80
2016-08-25T07:54:49.660Z,80
2016-08-25T07:55:49.677Z,80
2016-08-25T07:56:49.664Z,80
2016-08-25T07:57:49.676Z,80
2016-08-25T07:58:49.660Z,80
2016-08-25T07:59:49.698Z,80
2016-08-25T08:00:49.734Z,80
2016-08-25T08:01:50.498Z,80
2016-08-25T08:02:49.675Z,80
2016-08-25T08:03:50.422Z,80
2016-08-25T08:04:49.676Z,80
2016-08-25T08:05:49.664Z,80
2016-08-25T08:06:49.675Z,80
2016-08-25T08:07:49.727Z,80
2016-08-25T08:08:49.681Z,80
2016-08-25T08:09:49.676Z,80
2016-08-25T08:10:49.674Z,80
2016-08-25T08:11:49.694Z,80
2016-08-25T08:12:49.876Z,80
2016-08-25T08:13:49.719Z,80
2016-08-25T08:14:49.709Z,80
2016-08-25T08:15:49.690Z,80
2016-08-25T08:16:49.713Z,80
2016-08-25T08:17:49.696Z,80
2016-08-25T08:18:49.698Z,80
2016-08-25T08:19:49.718Z,80
2016-08-25T08:20:49.702Z,80
2016-08-25T08:21:50.497Z,80
2016-08-25T08:22:49.691Z,80
2016-08-25T08:23:49.724Z,80
2016-08-25T08:24:49.709Z,80
2016-08-25T08:25:49.695Z,80
2016-08-25T08:26:49.704Z,80
2016-08-25T08:27:49.708Z,80
2016-08-25T08:28:49.751Z,80
2016-08-25T08:29:49.734Z,80
2016-08-25T08:30:49.706Z,80
2016-08-25T08:31:49.714Z,80
2016-08-25T08:32:49.748Z,80
2016-08-25T08:33:49.748Z,80
2016-08-25T08:34:49.723Z,80
2016-08-25T08:35:49.739Z,80
2016-08-25T08:36:49.742Z,80
2016-08-25T08:37:49.765Z,80
2016-08-25T08:38:49.759Z,80
2016-08-25T08:39:49.725Z,80
2016-08-25T08:40:49.755Z,80
2016-08-25T08:41:49.744Z,80
2016-08-25T08:42:49.777Z,80
2016-08-25T08:43:49.774Z,80
2016-08-25T08:44:49.728Z,80
2016-08-25T08:45:49.744Z,80
2016-08-25T08:46:49.817Z,80
2016-08-25T08:47:49.774Z,80
2016-08-25T08:48:49.735Z,80
2016-08-25T08:49:49.760Z,80
2016-08-25T08:50:49.742Z,80
2016-08-25T08:51:49.745Z,80
2016-08-25T08:52:49.743Z,80
2016-08-25T08:53:51.347Z,80
2016-08-25T08:54:49.767Z,80
2016-08-25T08:55:49.778Z,80
2016-08-25T08:56:49.754Z,80
2016-08-25T08:57:49.756Z,80
2016-08-25T08:58:49.774Z,80
2016-08-25T08:59:50.490Z,80
2016-08-25T09:00:49.767Z,80
2016-08-25T09:01:49.774Z,80
2016-08-25T09:02:49.757Z,80
2016-08-25T09:03:49.783Z,80
2016-08-25T09:04:49.799Z,80
2016-08-25T09:05:49.789Z,80
2016-08-25T09:06:49.788Z,80
2016-08-25T09:07:49.808Z,80
2016-08-25T09:08:49.795Z,80
2016-08-25T09:09:49.787Z,80
2016-08-25T09:10:49.776Z,80
2016-08-25T09:11:49.822Z,80
2016-08-25T09:12:50.798Z,80
2016-08-25T09:13:49.799Z,80
2016-08-25T09:14:49.794Z,80
2016-08-25T09:15:49.825Z,80
2016-08-25T09:16:49.857Z,80
2016-08-25T09:17:49.821Z,80
2016-08-25T09:18:49.842Z,80
2016-08-25T09:19:49.808Z,80
2016-08-25T09:20:49.822Z,80
2016-08-25T09:21:49.818Z,80
2016-08-25T09:22:49.837Z,80
2016-08-25T09:23:49.836Z,80
2016-08-25T09:24:49.807Z,80
2016-08-25T09:25:50.527Z,80
2016-08-25T09:26:49.832Z,80
2016-08-25T09:27:49.849Z,80
2016-08-25T09:28:49.823Z,80
2016-08-25T09:29:49.884Z,80
2016-08-25T09:30:49.860Z,80
2016-08-25T09:31:49.892Z,80
2016-08-25T09:32:49.859Z,80
2016-08-25T09:33:49.843Z,80
2016-08-25T09:34:49.857Z,80
2016-08-25T09:35:49.850Z,80
2016-08-25T09:36:49.838Z,80
2016-08-25T09:37:49.878Z,80
2016-08-25T09:38:49.885Z,80
2016-08-25T09:39:49.881Z,80
2016-08-25T09:40:49.871Z,80
2016-08-25T09:41:49.858Z,80
2016-08-25T09:42:49.885Z,80
2016-08-25T09:43:49.891Z,80
2016-08-25T09:44:49.896Z,80
2016-08-25T09:45:49.887Z,80
2016-08-25T09:46:49.876Z,80
2016-08-25T09:47:49.878Z,80
2016-08-25T09:48:49.914Z,80
2016-08-25T09:49:49.922Z,80
2016-08-25T09:50:49.877Z,80
2016-08-25T09:51:49.907Z,80
2016-08-25T09:52:49.902Z,80
2016-08-25T09:53:49.905Z,80
2016-08-25T09:54:49.916Z,80
2016-08-25T09:55:49.929Z,80
2016-08-25T09:56:49.919Z,80
2016-08-25T09:57:50.797Z,80
2016-08-25T09:58:49.911Z,80
2016-08-25T09:59:49.941Z,80
2016-08-25T10:00:49.937Z,80
2016-08-25T10:01:49.951Z,80
2016-08-25T10:02:49.943Z,80
2016-08-25T10:03:49.939Z,80
2016-08-25T10:04:49.938Z,80
2016-08-25T10:05:49.935Z,80
2016-08-25T10:06:49.962Z,80
2016-08-25T10:07:49.966Z,80
2016-08-25T10:08:49.948Z,80
2016-08-25T10:09:50.088Z,80
2016-08-25T10:10:49.969Z,80
2016-08-25T10:11:49.969Z,80
2016-08-25T10:12:50.811Z,80
2016-08-25T10:13:50.805Z,80
2016-08-25T10:14:49.990Z,80
2016-08-25T10:15:49.998Z,80
2016-08-25T10:16:49.967Z,80
2016-08-25T10:17:49.963Z,80
2016-08-25T10:18:49.985Z,80
2016-08-25T10:19:49.967Z,80
2016-08-25T10:20:49.977Z,80
2016-08-25T10:21:50.004Z,80
2016-08-25T10:22:49.986Z,80
2016-08-25T10:23:49.999Z,80
2016-08-25T10:24:49.986Z,80
2016-08-25T10:25:50.033Z,80
2016-08-25T10:26:49.981Z,80
2016-08-25T10:27:49.988Z,80
2016-08-25T10:28:50.001Z,80
2016-08-25T10:29:49.992Z,80
2016-08-25T10:30:50.054Z,80
2016-08-25T10:31:50.005Z,80
2016-08-25T10:32:50.044Z,80
2016-08-25T10:33:50.037Z,80
2016-08-25T10:34:50.036Z,80
2016-08-25T10:35:50.028Z,80
2016-08-25T10:36:50.008Z,80
2016-08-25T10:37:50.063Z,80
2016-08-25T10:38:50.041Z,80
2016-08-25T10:39:50.020Z,80
2016-08-25T10:40:50.024Z,80
2016-08-25T10:41:50.037Z,80
2016-08-25T10:42:50.055Z,80
2016-08-25T10:43:50.055Z,80
2016-08-25T10:44:50.056Z,80
2016-08-25T10:45:50.057Z,80
2016-08-25T10:46:50.047Z,75
2016-08-25T10:47:50.084Z,80
2016-08-25T10:48:50.094Z,80
2016-08-25T10:49:50.084Z,80
2016-08-25T10:50:50.039Z,80
2016-08-25T10:51:50.079Z,80
2016-08-25T10:52:50.834Z,75
2016-08-25T10:53:50.066Z,80
2016-08-25T10:54:50.105Z,80
2016-08-25T10:55:50.109Z,80
2016-08-25T10:56:50.100Z,80
2016-08-25T10:57:50.105Z,80
2016-08-25T10:58:50.074Z,80
2016-08-25T10:59:50.101Z,80
2016-08-25T11:00:50.108Z,75
2016-08-25T11:01:50.080Z,80
2016-08-25T11:02:50.840Z,80
2016-08-25T11:03:50.513Z,80
2016-08-25T11:04:50.114Z,75
2016-08-25T11:05:50.106Z,75
2016-08-25T11:06:50.113Z,75
2016-08-25T11:07:50.089Z,75
2016-08-25T11:08:50.110Z,75
2016-08-25T11:09:50.139Z,75
2016-08-25T11:10:50.140Z,75
2016-08-25T11:11:50.136Z,75
2016-08-25T11:12:50.133Z,80
2016-08-25T11:13:50.125Z,75
2016-08-25T11:14:50.124Z,75
2016-08-25T11:15:50.148Z,75
2016-08-25T11:16:50.136Z,75
2016-08-25T11:17:50.191Z,75
2016-08-25T11:18:50.172Z,80
2016-08-25T11:19:50.148Z,75
2016-08-25T11:20:50.157Z,75
2016-08-25T11:21:50.189Z,75
2016-08-25T11:22:50.159Z,75
2016-08-25T11:23:50.171Z,80
2016-08-25T11:24:50.188Z,75
2016-08-25T11:25:50.178Z,80
2016-08-25T11:26:50.347Z,75
2016-08-25T11:27:50.336Z,75
2016-08-25T11:28:50.321Z,75
2016-08-25T11:29:50.232Z,75
2016-08-25T11:30:50.187Z,75
2016-08-25T11:31:50.333Z,75
2016-08-25T11:32:51.086Z,75
2016-08-25T11:33:50.310Z,75
2016-08-25T11:34:50.306Z,75
2016-08-25T11:35:51.032Z,75
2016-08-25T11:36:50.305Z,75
2016-08-25T11:37:50.333Z,75
2016-08-25T11:38:50.341Z,75
2016-08-25T11:39:50.338Z,75
2016-08-25T11:40:50.345Z,75
2016-08-25T11:41:50.327Z,75
2016-08-25T11:42:50.336Z,75
2016-08-25T11:43:50.350Z,75
2016-08-25T11:45:50.768Z,75
2016-08-25T11:46:50.474Z,75
2016-08-25T11:47:50.478Z,75
2016-08-25T11:48:50.489Z,75
2016-08-25T11:49:50.473Z,75
2016-08-25T11:50:50.498Z,75
2016-08-25T11:51:51.990Z,75
2016-08-25T11:52:50.470Z,75
2016-08-25T11:53:50.460Z,75
2016-08-25T11:54:50.526Z,75
2016-08-25T11:55:50.494Z,75
2016-08-25T11:56:50.544Z,75
2016-08-25T11:57:50.633Z,75
2016-08-25T11:58:50.478Z,75
2016-08-25T11:59:50.500Z,75
2016-08-25T12:00:50.509Z,75
2016-08-25T12:01:50.462Z,75
2016-08-25T12:02:50.469Z,75
2016-08-25T12:03:50.663Z,75
2016-08-25T12:04:50.662Z,75
2016-08-25T12:05:50.673Z,75
2016-08-25T12:06:50.466Z,75
2016-08-25T12:07:50.483Z,75
2016-08-25T12:08:50.512Z,75
2016-08-25T12:09:50.635Z,75
2016-08-25T12:10:50.501Z,75
2016-08-25T12:12:06.076Z,75
2016-08-25T12:12:51.032Z,75
2016-08-25T12:13:51.047Z,75
2016-08-25T12:14:50.631Z,75
2016-08-25T12:15:50.639Z,75
2016-08-25T12:16:50.677Z,75
2016-08-25T12:17:50.614Z,75
2016-08-25T12:18:50.616Z,75
2016-08-25T12:19:50.698Z,75
2016-08-25T12:20:50.688Z,75
2016-08-25T12:21:50.746Z,75
2016-08-25T12:22:51.364Z,75
2016-08-25T12:23:50.654Z,75
2016-08-25T12:24:50.666Z,75
2016-08-25T12:25:50.710Z,75
2016-08-25T12:26:50.613Z,75
2016-08-25T12:27:50.585Z,75
2016-08-25T12:28:50.586Z,75
2016-08-25T12:29:50.678Z,75
2016-08-25T12:30:50.599Z,75
2016-08-25T12:31:50.607Z,75
2016-08-25T12:32:50.672Z,75
2016-08-25T12:33:50.629Z,75
2016-08-25T12:34:50.678Z,75
2016-08-25T12:35:51.354Z,75
2016-08-25T12:36:50.653Z,75
2016-08-25T12:37:50.695Z,75
2016-08-25T12:38:50.658Z,75
2016-08-25T12:39:50.597Z,75
2016-08-25T12:40:50.666Z,75
2016-08-25T12:41:50.660Z,75
2016-08-25T12:42:50.633Z,75
2016-08-25T12:43:50.674Z,75
2016-08-25T12:44:50.696Z,75
2016-08-25T12:45:50.632Z,75
2016-08-25T12:46:50.708Z,75
2016-08-25T12:47:50.710Z,75
2016-08-25T12:48:51.344Z,75
2016-08-25T12:49:50.636Z,75
2016-08-25T12:50:50.730Z,75
2016-08-25T12:51:50.669Z,75
2016-08-25T12:52:50.656Z,75
2016-08-25T12:53:50.685Z,75
2016-08-25T12:54:50.665Z,75
2016-08-25T12:55:50.678Z,75
2016-08-25T12:56:50.673Z,75
2016-08-25T12:57:50.797Z,75
2016-08-25T12:58:50.687Z,75
2016-08-25T12:59:50.716Z,75
2016-08-25T13:00:50.684Z,75
2016-08-25T13:01:50.706Z,75
2016-08-25T13:02:51.425Z,75
2016-08-25T13:03:50.628Z,75
2016-08-25T13:04:50.644Z,75
2016-08-25T13:05:50.649Z,75
2016-08-25T13:06:50.659Z,75
2016-08-25T13:07:50.659Z,75
2016-08-25T13:08:50.706Z,75
2016-08-25T13:09:51.272Z,75
2016-08-25T13:10:50.681Z,75
2016-08-25T13:11:50.721Z,75
2016-08-25T13:12:51.403Z,75
2016-08-25T13:13:50.766Z,75
2016-08-25T13:14:51.260Z,75
2016-08-25T13:15:51.766Z,75
2016-08-25T13:16:50.672Z,75
2016-08-25T13:17:50.696Z,75
2016-08-25T13:18:51.626Z,75
2016-08-25T13:19:50.687Z,75
2016-08-25T13:20:51.033Z,75
2016-08-25T13:21:50.722Z,75
2016-08-25T13:22:50.720Z,75
2016-08-25T13:23:50.738Z,75
2016-08-25T13:24:50.738Z,75
2016-08-25T13:25:50.720Z,75
2016-08-25T13:26:50.733Z,75
2016-08-25T13:27:50.699Z,75
2016-08-25T13:28:50.662Z,75
2016-08-25T13:29:50.829Z,75
2016-08-25T13:30:50.663Z,75
2016-08-25T13:31:50.699Z,75
2016-08-25T13:32:50.709Z,75
2016-08-25T13:33:50.697Z,75
2016-08-25T13:34:50.754Z,75
2016-08-25T13:35:50.704Z,75
2016-08-25T13:36:50.704Z,75
2016-08-25T13:37:50.729Z,75
2016-08-25T13:38:50.849Z,75
2016-08-25T13:39:50.743Z,75
2016-08-25T13:40:50.728Z,75
2016-08-25T13:41:50.929Z,75
2016-08-25T13:42:50.676Z,75
2016-08-25T13:43:50.758Z,75
2016-08-25T13:44:50.723Z,75
2016-08-25T13:45:50.678Z,75
2016-08-25T13:46:50.687Z,75
2016-08-25T13:47:50.833Z,75
2016-08-25T13:48:50.691Z,75
2016-08-25T13:49:50.791Z,75
2016-08-25T13:50:50.775Z,75
2016-08-25T13:51:50.770Z,75
2016-08-25T13:52:50.754Z,75
2016-08-25T13:53:50.777Z,75
2016-08-25T13:54:51.447Z,75
2016-08-25T13:55:50.771Z,75
2016-08-25T13:56:50.763Z,75
2016-08-25T13:57:50.866Z,75
2016-08-25T13:58:50.750Z,75
2016-08-25T13:59:50.742Z,75
2016-08-25T14:00:50.757Z,75
2016-08-25T14:01:50.885Z,75
2016-08-25T14:02:50.764Z,75
2016-08-25T14:03:50.786Z,75
2016-08-25T14:04:50.811Z,75
2016-08-25T14:05:50.818Z,75
2016-08-25T14:06:50.986Z,75
2016-08-25T14:07:51.620Z,75
2016-08-25T14:08:50.925Z,75
2016-08-25T14:09:50.837Z,75
2016-08-25T14:10:50.851Z,75
2016-08-25T14:11:50.811Z,75
2016-08-25T14:12:50.791Z,75
2016-08-25T14:13:50.822Z,75
2016-08-25T14:14:50.907Z,75
2016-08-25T14:15:50.815Z,75
2016-08-25T14:16:50.810Z,75
2016-08-25T14:17:50.886Z,75
2016-08-25T14:18:50.835Z,75
2016-08-25T14:19:50.852Z,75
2016-08-25T14:20:50.867Z,75
2016-08-25T14:21:50.834Z,75
2016-08-25T14:22:50.853Z,75
2016-08-25T14:23:50.867Z,75
2016-08-25T14:24:51.610Z,75
2016-08-25T14:25:50.871Z,75